Yarnton, United Kingdom
Current Conditions -  °F | °C
As of 6:20 AM on Tuesday 21 Oct 2014 (Local Time) from EGTK Reporting Station
Moderate Rain Moderate Rain  
Wind Chill: 55°   Ceiling: 1200
Heat Index: 55°   Visibility: 3mi
Dew Point: 54°   Wind: 17mph
Humidity: 94%   Direction: 220°SW
Pressure: 29.5"   Gusts: 29mph
Location:  51.81°N, 1.31°W
Report Text: EGTK 210520Z 22015G25KT 190V250 5000 RA BKN012 BKN015 OVC017 13/12 Q0999
Loading
Personal Weather Stations






























Interactive Weather Map
Tropical Storm Tracking
New forecast layout! Learn more

10-Day Weather Forecast

Advertisements
Track Severe Weather on mobile